Time;durP1;ratioP1;P1;durP2;ratioP2;P2;SDS_P1;SDS_P2;PMS_P1;PMS_P2;Temp;Humidity;BMP_temperature;BMP_pressure;BME280_temperature;BME280_humidity;BME280_pressure;Samples;Min_cycle;Max_cycle;Signal;HPM_P1;HPM_P2
2023/10/23 00:00:24;;;;;;;7.50;1.80;;;;;;;;;;5025896;28;20024;-67
2023/10/23 00:02:49;;;;;;;10.10;2.00;;;;;;;;;;5025078;28;20106;-67
2023/10/23 00:05:15;;;;;;;8.35;1.30;;;;;;;;;;5027037;28;20056;-66
2023/10/23 00:07:40;;;;;;;6.72;1.77;;;;;;;;;;5024010;28;20163;-65
2023/10/23 00:10:05;;;;;;;5.55;1.25;;;;;;;;;;5030694;28;20644;-65
2023/10/23 00:12:30;;;;;;;3.20;1.00;;;;;;;;;;5034153;28;20025;-67
2023/10/23 00:14:56;;;;;;;8.57;1.75;;;;;;;;;;5030242;28;20025;-68
2023/10/23 00:17:21;;;;;;;4.15;1.45;;;;;;;;;;5030948;28;20033;-67
2023/10/23 00:19:46;;;;;;;8.27;1.52;;;;;;;;;;5028775;28;20021;-66
2023/10/23 00:22:11;;;;;;;13.65;1.58;;;;;;;;;;5020601;28;20037;-66
2023/10/23 00:24:36;;;;;;;11.63;1.65;;;;;;;;;;5027048;28;20017;-66
2023/10/23 00:27:02;;;;;;;9.48;2.13;;;;;;;;;;5026154;28;20083;-66
2023/10/23 00:29:27;;;;;;;9.15;1.73;;;;;;;;;;5027006;28;20055;-63
2023/10/23 00:31:52;;;;;;;7.72;1.63;;;;;;;;;;5038426;28;20148;-66
2023/10/23 00:34:17;;;;;;;8.27;1.67;;;;;;;;;;5018670;28;20017;-65
2023/10/23 00:36:42;;;;;;;10.88;2.20;;;;;;;;;;5002308;28;20140;-66
2023/10/23 00:39:08;;;;;;;12.07;1.98;;;;;;;;;;5030391;28;20083;-66
2023/10/23 00:41:33;;;;;;;11.07;2.20;;;;;;;;;;5027141;28;20381;-67
2023/10/23 00:44:00;;;;;;;10.15;1.92;;;;;;;;;;5028859;28;20361;-67
2023/10/23 00:46:28;;;;;;;6.78;2.20;;;;;;;;;;5027067;28;20251;-66
2023/10/23 00:48:53;;;;;;;6.65;1.90;;;;;;;;;;5033931;28;20022;-67
2023/10/23 00:51:19;;;;;;;10.27;2.30;;;;;;;;;;5026673;28;20525;-66
2023/10/23 00:53:45;;;;;;;11.27;2.22;;;;;;;;;;5026671;28;20148;-66
2023/10/23 00:56:11;;;;;;;10.13;2.40;;;;;;;;;;5021153;28;20108;-66
2023/10/23 00:58:40;;;;;;;8.30;2.97;;;;;;;;;;5027082;28;20025;-65
2023/10/23 01:01:06;;;;;;;11.25;2.97;;;;;;;;;;5028152;28;20626;-67
2023/10/23 01:03:31;;;;;;;9.48;2.35;;;;;;;;;;5034766;28;20020;-65
2023/10/23 01:05:56;;;;;;;13.88;3.45;;;;;;;;;;5029883;28;20101;-65
2023/10/23 01:08:22;;;;;;;12.77;2.38;;;;;;;;;;5033280;28;20095;-66
2023/10/23 01:10:47;;;;;;;11.50;2.20;;;;;;;;;;5031403;28;20021;-65
2023/10/23 01:13:12;;;;;;;14.73;2.35;;;;;;;;;;5028261;28;20020;-67
2023/10/23 01:15:38;;;;;;;8.95;1.95;;;;;;;;;;5024835;28;20021;-66
2023/10/23 01:18:03;;;;;;;10.13;1.80;;;;;;;;;;5026653;28;20025;-66
2023/10/23 01:20:29;;;;;;;8.95;2.10;;;;;;;;;;5028804;28;20026;-65
2023/10/23 01:22:57;;;;;;;6.38;1.77;;;;;;;;;;5029387;28;20104;-65
2023/10/23 01:25:23;;;;;;;11.57;2.63;;;;;;;;;;5022656;28;20496;-66
2023/10/23 01:27:48;;;;;;;10.50;2.33;;;;;;;;;;5032746;28;20026;-66
2023/10/23 01:30:13;;;;;;;10.20;2.65;;;;;;;;;;5025946;28;20068;-67
2023/10/23 01:32:38;;;;;;;7.68;2.08;;;;;;;;;;5026436;28;20032;-65
2023/10/23 01:35:04;;;;;;;9.82;2.20;;;;;;;;;;5026128;28;20018;-65
2023/10/23 01:37:29;;;;;;;7.47;1.80;;;;;;;;;;5026470;28;20534;-65
2023/10/23 01:39:54;;;;;;;9.70;2.05;;;;;;;;;;5030071;28;20528;-67
2023/10/23 01:42:19;;;;;;;8.13;1.85;;;;;;;;;;5029776;28;20455;-66
2023/10/23 01:44:45;;;;;;;9.68;2.00;;;;;;;;;;5038871;28;20080;-65
2023/10/23 01:47:10;;;;;;;5.63;1.77;;;;;;;;;;5020245;28;20017;-67
2023/10/23 01:49:35;;;;;;;11.38;2.25;;;;;;;;;;5025333;28;20041;-65
2023/10/23 01:52:00;;;;;;;13.18;2.40;;;;;;;;;;5018218;28;20070;-67
2023/10/23 01:54:26;;;;;;;11.20;2.00;;;;;;;;;;5026074;28;20105;-64
2023/10/23 01:56:51;;;;;;;8.15;1.88;;;;;;;;;;5023948;28;20025;-66
2023/10/23 01:59:16;;;;;;;15.07;1.85;;;;;;;;;;5025438;28;20014;-68
2023/10/23 02:01:42;;;;;;;13.20;2.17;;;;;;;;;;5031416;28;20017;-66
2023/10/23 02:04:07;;;;;;;15.73;1.90;;;;;;;;;;5029730;28;20024;-68
2023/10/23 02:06:32;;;;;;;9.45;1.60;;;;;;;;;;5025060;28;20052;-67
2023/10/23 02:08:58;;;;;;;9.85;1.95;;;;;;;;;;5024093;28;20018;-65
2023/10/23 02:11:23;;;;;;;9.25;1.40;;;;;;;;;;5025132;28;20079;-67
2023/10/23 02:13:48;;;;;;;10.00;2.08;;;;;;;;;;5030893;28;20021;-66
2023/10/23 02:16:13;;;;;;;9.02;1.50;;;;;;;;;;5019235;28;20390;-64
2023/10/23 02:18:39;;;;;;;20.13;2.63;;;;;;;;;;5025967;28;20408;-67
2023/10/23 02:21:04;;;;;;;13.82;1.88;;;;;;;;;;5031591;28;20841;-66
2023/10/23 02:23:32;;;;;;;5.93;1.40;;;;;;;;;;5028545;28;20572;-67
2023/10/23 02:25:58;;;;;;;10.57;1.63;;;;;;;;;;5024161;28;20021;-68
2023/10/23 02:28:23;;;;;;;8.88;1.75;;;;;;;;;;5035624;28;20112;-68
2023/10/23 02:30:48;;;;;;;13.32;2.20;;;;;;;;;;5028269;28;20017;-66
2023/10/23 02:33:14;;;;;;;9.30;1.92;;;;;;;;;;5032730;28;20417;-64
2023/10/23 02:35:39;;;;;;;10.70;2.10;;;;;;;;;;5027533;28;20028;-65
2023/10/23 02:38:04;;;;;;;12.43;2.20;;;;;;;;;;5029448;28;20025;-65
2023/10/23 02:40:29;;;;;;;6.90;1.35;;;;;;;;;;5028430;28;20026;-65
2023/10/23 02:42:55;;;;;;;16.02;2.00;;;;;;;;;;5035326;28;20406;-66
2023/10/23 02:45:20;;;;;;;12.98;1.95;;;;;;;;;;5026956;28;20033;-67
2023/10/23 02:47:45;;;;;;;11.35;2.05;;;;;;;;;;5025281;28;20087;-67
2023/10/23 02:50:10;;;;;;;13.73;1.98;;;;;;;;;;5029714;28;20071;-67
2023/10/23 02:52:36;;;;;;;9.93;1.67;;;;;;;;;;5020549;28;20034;-64
2023/10/23 02:55:01;;;;;;;5.75;1.65;;;;;;;;;;5026075;28;20021;-67
2023/10/23 02:57:26;;;;;;;6.65;1.45;;;;;;;;;;5028386;28;20025;-66
2023/10/23 02:59:52;;;;;;;10.55;1.60;;;;;;;;;;5020433;28;20034;-66
2023/10/23 03:02:18;;;;;;;9.07;1.77;;;;;;;;;;5027077;28;20503;-66
2023/10/23 03:04:43;;;;;;;3.95;1.33;;;;;;;;;;5028518;28;20066;-64
2023/10/23 03:07:09;;;;;;;9.52;2.25;;;;;;;;;;5030406;28;20499;-66
2023/10/23 03:09:34;;;;;;;8.48;2.28;;;;;;;;;;5023578;28;20123;-66
2023/10/23 03:11:59;;;;;;;9.35;1.75;;;;;;;;;;5028353;28;20046;-67
2023/10/23 03:14:24;;;;;;;8.35;1.88;;;;;;;;;;5028753;28;20473;-64
2023/10/23 03:16:50;;;;;;;11.23;1.60;;;;;;;;;;5029716;28;20430;-67
2023/10/23 03:19:15;;;;;;;12.43;1.48;;;;;;;;;;5040901;28;20469;-64
2023/10/23 03:21:40;;;;;;;5.93;1.50;;;;;;;;;;5029622;28;20017;-67
2023/10/23 03:24:05;;;;;;;8.23;1.83;;;;;;;;;;5029960;28;20431;-67
2023/10/23 03:26:31;;;;;;;8.77;1.65;;;;;;;;;;5027624;28;20389;-63
2023/10/23 03:28:56;;;;;;;7.43;1.70;;;;;;;;;;5030190;28;20459;-66
2023/10/23 03:31:21;;;;;;;9.20;2.08;;;;;;;;;;5027211;28;20500;-64
2023/10/23 03:33:47;;;;;;;9.60;1.90;;;;;;;;;;5016972;28;20098;-66
2023/10/23 03:36:12;;;;;;;4.68;1.42;;;;;;;;;;5026331;28;20033;-66
2023/10/23 03:38:37;;;;;;;8.98;1.90;;;;;;;;;;5028222;28;20021;-67
2023/10/23 03:41:02;;;;;;;14.52;1.75;;;;;;;;;;5026819;28;20021;-65
2023/10/23 03:43:28;;;;;;;11.30;1.75;;;;;;;;;;5028999;28;20097;-66
2023/10/23 03:45:53;;;;;;;7.32;1.65;;;;;;;;;;5021967;28;20373;-64
2023/10/23 03:48:18;;;;;;;12.25;1.60;;;;;;;;;;5027366;28;20014;-67
2023/10/23 03:50:43;;;;;;;7.78;1.77;;;;;;;;;;5028218;28;20042;-66
2023/10/23 03:53:08;;;;;;;7.93;1.67;;;;;;;;;;5027610;28;20093;-68
2023/10/23 03:55:37;;;;;;;4.35;1.27;;;;;;;;;;5030582;28;20017;-66
2023/10/23 03:58:02;;;;;;;4.88;1.40;;;;;;;;;;5024863;28;20010;-67
2023/10/23 04:00:29;;;;;;;6.07;1.88;;;;;;;;;;5028747;28;20037;-66
2023/10/23 04:02:54;;;;;;;14.48;2.35;;;;;;;;;;5035568;28;20024;-66
2023/10/23 04:05:19;;;;;;;7.80;1.80;;;;;;;;;;5033225;28;20009;-64
2023/10/23 04:07:44;;;;;;;7.22;1.45;;;;;;;;;;5028791;28;20024;-65
2023/10/23 04:10:13;;;;;;;8.30;1.67;;;;;;;;;;5041440;28;20518;-64
2023/10/23 04:12:38;;;;;;;17.35;2.00;;;;;;;;;;5020041;28;20089;-66
2023/10/23 04:15:04;;;;;;;7.97;1.88;;;;;;;;;;5024646;28;20021;-66
2023/10/23 04:17:29;;;;;;;8.65;1.40;;;;;;;;;;5035305;28;20107;-64
2023/10/23 04:19:54;;;;;;;4.40;1.50;;;;;;;;;;5026725;28;20441;-66
2023/10/23 04:22:19;;;;;;;13.27;2.30;;;;;;;;;;5035827;28;20016;-66
2023/10/23 04:24:45;;;;;;;7.80;1.60;;;;;;;;;;5029772;28;20397;-68
2023/10/23 04:27:10;;;;;;;15.30;1.80;;;;;;;;;;5028312;28;20438;-65
2023/10/23 04:29:35;;;;;;;9.10;1.60;;;;;;;;;;5027660;28;20381;-67
2023/10/23 04:32:00;;;;;;;6.18;1.60;;;;;;;;;;5037694;28;20558;-67
2023/10/23 04:34:26;;;;;;;5.72;1.60;;;;;;;;;;5022614;28;20461;-66
2023/10/23 04:36:51;;;;;;;7.20;1.90;;;;;;;;;;5034614;28;20113;-66
2023/10/23 04:39:16;;;;;;;6.57;1.80;;;;;;;;;;5029536;28;20104;-65
2023/10/23 04:41:41;;;;;;;9.20;2.00;;;;;;;;;;5042325;28;20021;-64
2023/10/23 04:44:06;;;;;;;7.35;1.67;;;;;;;;;;5022508;28;20064;-66
2023/10/23 04:46:32;;;;;;;7.97;2.30;;;;;;;;;;5027580;28;20017;-67
2023/10/23 04:48:57;;;;;;;9.93;2.10;;;;;;;;;;5030196;28;20069;-66
2023/10/23 04:51:22;;;;;;;15.07;2.15;;;;;;;;;;5031961;28;20760;-66
2023/10/23 04:53:47;;;;;;;14.95;1.95;;;;;;;;;;5021123;28;20037;-66
2023/10/23 04:56:13;;;;;;;11.02;2.22;;;;;;;;;;5027501;28;20067;-67
2023/10/23 04:58:38;;;;;;;12.63;2.25;;;;;;;;;;5025108;28;20374;-66
2023/10/23 05:01:03;;;;;;;5.88;1.73;;;;;;;;;;5027396;28;20056;-67
2023/10/23 05:03:29;;;;;;;10.10;1.75;;;;;;;;;;5029699;28;20021;-66
2023/10/23 05:05:55;;;;;;;7.78;2.25;;;;;;;;;;5026095;28;20116;-67
2023/10/23 05:08:20;;;;;;;9.23;2.33;;;;;;;;;;5030322;28;20421;-65
2023/10/23 05:10:45;;;;;;;8.98;2.47;;;;;;;;;;5031354;28;20022;-68
2023/10/23 05:13:10;;;;;;;10.80;2.30;;;;;;;;;;5038809;28;20021;-66
2023/10/23 05:15:36;;;;;;;9.57;2.75;;;;;;;;;;5031617;28;20348;-65
2023/10/23 05:18:01;;;;;;;9.13;1.63;;;;;;;;;;5029632;28;20355;-67
2023/10/23 05:20:26;;;;;;;7.20;1.80;;;;;;;;;;5026647;28;20515;-66
2023/10/23 05:22:51;;;;;;;8.18;2.10;;;;;;;;;;5027143;28;20584;-68
2023/10/23 05:25:17;;;;;;;8.82;1.92;;;;;;;;;;5024605;28;20032;-65
2023/10/23 05:27:43;;;;;;;5.53;1.83;;;;;;;;;;5024077;28;20163;-66
2023/10/23 05:30:08;;;;;;;6.35;1.65;;;;;;;;;;5024678;28;20109;-67
2023/10/23 05:32:37;;;;;;;11.23;2.05;;;;;;;;;;5023555;28;21214;-67
2023/10/23 05:35:03;;;;;;;9.95;2.13;;;;;;;;;;5024272;28;20029;-65
2023/10/23 05:37:29;;;;;;;6.00;2.03;;;;;;;;;;5022792;28;20104;-66
2023/10/23 05:39:54;;;;;;;7.43;2.10;;;;;;;;;;5030689;28;20092;-66
2023/10/23 05:42:20;;;;;;;12.57;2.45;;;;;;;;;;5026319;28;20061;-65
2023/10/23 05:44:46;;;;;;;10.50;2.50;;;;;;;;;;5028362;28;20045;-64
2023/10/23 05:47:11;;;;;;;7.13;2.20;;;;;;;;;;5020003;28;20037;-66
2023/10/23 05:49:36;;;;;;;6.13;2.20;;;;;;;;;;5026127;28;20029;-66
2023/10/23 05:52:01;;;;;;;12.40;2.65;;;;;;;;;;5007757;28;20032;-66
2023/10/23 05:54:27;;;;;;;6.80;2.58;;;;;;;;;;5024945;28;20042;-68
2023/10/23 05:56:52;;;;;;;18.95;2.95;;;;;;;;;;5032565;28;20060;-66
2023/10/23 05:59:17;;;;;;;9.57;2.55;;;;;;;;;;5023173;28;20558;-66
2023/10/23 06:01:42;;;;;;;9.70;2.80;;;;;;;;;;5029574;28;20049;-66
2023/10/23 06:04:07;;;;;;;10.00;3.08;;;;;;;;;;5024124;28;20014;-66
2023/10/23 06:06:33;;;;;;;11.05;2.55;;;;;;;;;;5026413;28;20112;-64
2023/10/23 06:08:59;;;;;;;7.97;2.80;;;;;;;;;;5032571;28;20017;-66
2023/10/23 06:11:24;;;;;;;8.75;2.42;;;;;;;;;;5026442;28;20025;-65
2023/10/23 06:13:50;;;;;;;7.63;3.13;;;;;;;;;;5028154;28;20441;-64
2023/10/23 06:16:15;;;;;;;10.30;3.53;;;;;;;;;;5029741;28;20018;-63
2023/10/23 06:18:40;;;;;;;10.90;3.10;;;;;;;;;;5017696;28;20090;-66
2023/10/23 06:21:06;;;;;;;10.60;3.42;;;;;;;;;;5034293;28;20033;-65
2023/10/23 06:23:31;;;;;;;14.30;4.20;;;;;;;;;;5034520;28;20703;-66
2023/10/23 06:25:57;;;;;;;9.50;3.88;;;;;;;;;;5039162;28;20594;-64
2023/10/23 06:28:22;;;;;;;11.48;3.35;;;;;;;;;;5030490;28;20017;-66
2023/10/23 06:30:47;;;;;;;11.57;3.63;;;;;;;;;;5012294;28;20033;-63
2023/10/23 06:33:12;;;;;;;14.18;3.45;;;;;;;;;;5031805;28;20025;-66
2023/10/23 06:35:37;;;;;;;10.27;3.78;;;;;;;;;;5028601;28;20369;-65
2023/10/23 06:38:04;;;;;;;18.33;5.00;;;;;;;;;;5030896;28;20048;-66
2023/10/23 06:40:29;;;;;;;20.90;4.50;;;;;;;;;;5012884;28;20126;-64
2023/10/23 06:42:54;;;;;;;10.45;3.80;;;;;;;;;;5032448;28;20049;-65
2023/10/23 06:45:19;;;;;;;17.20;5.25;;;;;;;;;;5025612;28;20484;-66
2023/10/23 06:47:48;;;;;;;10.00;3.83;;;;;;;;;;5028003;28;20488;-66
2023/10/23 06:50:14;;;;;;;12.77;3.92;;;;;;;;;;5041015;28;20026;-67
2023/10/23 06:52:39;;;;;;;8.57;3.08;;;;;;;;;;5026814;28;20349;-66
2023/10/23 06:55:04;;;;;;;13.50;2.95;;;;;;;;;;5023233;28;20014;-65
2023/10/23 06:57:30;;;;;;;8.55;2.45;;;;;;;;;;5029646;28;20010;-65
2023/10/23 06:59:55;;;;;;;18.00;2.80;;;;;;;;;;5029486;28;20009;-67
2023/10/23 07:02:21;;;;;;;19.42;3.35;;;;;;;;;;5027580;28;20021;-65
2023/10/23 07:04:47;;;;;;;12.70;4.07;;;;;;;;;;5029526;28;20020;-62
2023/10/23 07:07:13;;;;;;;7.18;3.05;;;;;;;;;;5026328;28;20097;-63
2023/10/23 07:09:39;;;;;;;22.48;5.40;;;;;;;;;;5033133;28;20108;-66
2023/10/23 07:12:04;;;;;;;13.77;3.40;;;;;;;;;;5032926;28;20026;-65
2023/10/23 07:14:29;;;;;;;10.90;3.22;;;;;;;;;;5009254;28;20079;-65
2023/10/23 07:16:54;;;;;;;11.73;2.58;;;;;;;;;;5022975;28;20093;-65
2023/10/23 07:19:20;;;;;;;9.77;2.90;;;;;;;;;;5039484;28;20072;-65
2023/10/23 07:21:45;;;;;;;11.05;2.95;;;;;;;;;;5037688;28;20147;-64
2023/10/23 07:24:10;;;;;;;22.25;3.00;;;;;;;;;;5046106;28;20017;-66
2023/10/23 07:26:35;;;;;;;12.10;2.38;;;;;;;;;;5033689;28;20062;-65
2023/10/23 07:29:01;;;;;;;11.20;2.67;;;;;;;;;;5029241;28;20022;-66
2023/10/23 07:31:26;;;;;;;7.53;2.88;;;;;;;;;;5029531;28;20096;-67
2023/10/23 07:33:51;;;;;;;9.45;2.42;;;;;;;;;;5022812;28;20480;-66
2023/10/23 07:36:18;;;;;;;9.95;3.40;;;;;;;;;;5011123;28;20017;-66
2023/10/23 07:38:44;;;;;;;8.65;2.85;;;;;;;;;;5031022;28;20119;-65
2023/10/23 07:41:09;;;;;;;8.50;2.53;;;;;;;;;;5008740;28;20025;-67
2023/10/23 07:43:35;;;;;;;14.18;3.35;;;;;;;;;;5025160;28;20067;-64
2023/10/23 07:46:04;;;;;;;8.68;2.50;;;;;;;;;;5022174;28;20022;-68
2023/10/23 07:48:29;;;;;;;;;;;;;;;;;;5030148;28;20523;-66
2023/10/23 07:50:56;;;;;;;5.78;2.50;;;;;;;;;;5031974;28;20634;-65
2023/10/23 07:53:22;;;;;;;13.73;2.75;;;;;;;;;;5029528;28;20017;-64
2023/10/23 07:55:47;;;;;;;13.65;2.33;;;;;;;;;;5022742;28;20479;-66
2023/10/23 07:58:12;;;;;;;26.98;2.78;;;;;;;;;;5034142;28;20623;-64
2023/10/23 08:00:37;;;;;;;8.40;1.90;;;;;;;;;;5034311;28;20406;-66
2023/10/23 08:03:02;;;;;;;8.00;2.10;;;;;;;;;;5040480;28;20017;-69
2023/10/23 08:05:28;;;;;;;7.43;2.45;;;;;;;;;;5027923;28;20072;-66
2023/10/23 08:07:53;;;;;;;6.38;1.83;;;;;;;;;;5026726;28;20044;-67
2023/10/23 08:10:18;;;;;;;10.88;2.70;;;;;;;;;;5036640;28;20062;-66
2023/10/23 08:12:46;;;;;;;7.80;2.05;;;;;;;;;;5028111;28;20039;-65
2023/10/23 08:15:11;;;;;;;10.50;2.88;;;;;;;;;;5027150;28;20439;-68
2023/10/23 08:17:37;;;;;;;7.47;2.00;;;;;;;;;;5036227;28;20029;-65
2023/10/23 08:20:03;;;;;;;5.50;1.60;;;;;;;;;;5031301;28;20009;-66
2023/10/23 08:22:29;;;;;;;6.88;1.50;;;;;;;;;;5035848;28;20025;-66
2023/10/23 08:24:54;;;;;;;6.90;1.85;;;;;;;;;;5026507;28;20021;-66
2023/10/23 08:27:19;;;;;;;7.55;1.42;;;;;;;;;;5027324;28;20009;-65
2023/10/23 08:29:44;;;;;;;9.65;1.90;;;;;;;;;;5022657;28;20559;-65
2023/10/23 08:32:10;;;;;;;8.23;1.83;;;;;;;;;;5040498;28;20025;-66
2023/10/23 08:34:35;;;;;;;9.35;2.60;;;;;;;;;;5027921;28;20120;-66
2023/10/23 08:37:00;;;;;;;15.98;2.03;;;;;;;;;;5026912;28;20057;-65
2023/10/23 08:39:26;;;;;;;12.20;1.83;;;;;;;;;;5029008;28;20017;-64
2023/10/23 08:41:52;;;;;;;11.23;2.08;;;;;;;;;;5027563;28;20021;-64
2023/10/23 08:44:18;;;;;;;7.85;1.80;;;;;;;;;;5027769;28;20041;-66
2023/10/23 08:46:44;;;;;;;6.18;1.90;;;;;;;;;;5021250;28;20037;-64
2023/10/23 08:49:09;;;;;;;10.95;1.88;;;;;;;;;;5010726;28;20361;-66
2023/10/23 08:51:35;;;;;;;7.50;1.67;;;;;;;;;;5022187;28;20345;-66
2023/10/23 08:54:08;;;;;;;6.80;2.90;;;;;;;;;;5027731;28;20456;-65
2023/10/23 08:56:35;;;;;;;7.55;2.00;;;;;;;;;;5028641;28;20044;-66
2023/10/23 08:59:01;;;;;;;5.38;1.90;;;;;;;;;;5027114;28;20117;-64
2023/10/23 09:01:27;;;;;;;5.10;1.80;;;;;;;;;;5027375;28;20437;-65
2023/10/23 09:03:53;;;;;;;6.80;1.83;;;;;;;;;;5027023;28;20018;-66
2023/10/23 09:06:18;;;;;;;9.13;2.63;;;;;;;;;;5031414;28;20611;-64
2023/10/23 09:08:44;;;;;;;6.97;2.35;;;;;;;;;;5025318;28;20017;-65
2023/10/23 09:11:09;;;;;;;7.80;2.15;;;;;;;;;;5026720;28;20018;-67
2023/10/23 09:13:37;;;;;;;8.50;2.53;;;;;;;;;;5028474;28;20105;-66
2023/10/23 09:16:04;;;;;;;14.00;2.00;;;;;;;;;;5026034;28;20072;-66
2023/10/23 09:18:29;;;;;;;6.28;1.80;;;;;;;;;;5027495;28;20072;-67
2023/10/23 09:20:55;;;;;;;10.30;1.88;;;;;;;;;;5028888;28;20635;-65
2023/10/23 09:23:20;;;;;;;7.22;1.63;;;;;;;;;;5032028;28;20017;-64
2023/10/23 09:25:47;;;;;;;10.57;2.03;;;;;;;;;;5025481;28;20086;-67
2023/10/23 09:28:13;;;;;;;9.20;1.88;;;;;;;;;;5027100;28;20028;-66
2023/10/23 09:30:38;;;;;;;7.22;1.77;;;;;;;;;;5008624;28;20029;-67
2023/10/23 09:33:05;;;;;;;10.63;2.38;;;;;;;;;;5023088;28;20032;-67
2023/10/23 09:35:31;;;;;;;9.95;2.42;;;;;;;;;;5026467;28;20361;-64
2023/10/23 09:37:56;;;;;;;6.85;1.60;;;;;;;;;;5018947;28;20525;-66
2023/10/23 09:40:21;;;;;;;6.43;2.00;;;;;;;;;;5027122;28;20096;-66
2023/10/23 09:42:47;;;;;;;5.15;2.72;;;;;;;;;;5034741;28;20430;-66
2023/10/23 09:45:12;;;;;;;10.77;2.08;;;;;;;;;;5029812;28;20036;-68
2023/10/23 09:47:39;;;;;;;10.23;3.22;;;;;;;;;;5020796;28;20021;-65
2023/10/23 09:50:04;;;;;;;6.82;2.00;;;;;;;;;;5031717;28;20018;-66
2023/10/23 09:52:34;;;;;;;10.75;2.03;;;;;;;;;;5026446;28;20024;-64
2023/10/23 09:55:00;;;;;;;6.57;1.80;;;;;;;;;;5023454;28;20749;-65
2023/10/23 09:57:31;;;;;;;16.38;2.67;;;;;;;;;;5026559;28;20396;-64
2023/10/23 09:59:59;;;;;;;7.82;2.05;;;;;;;;;;5025715;28;20108;-66
2023/10/23 10:02:26;;;;;;;4.93;1.67;;;;;;;;;;5026103;28;20368;-64
2023/10/23 10:04:56;;;;;;;8.65;1.85;;;;;;;;;;5035746;28;20048;-64
2023/10/23 10:07:23;;;;;;;7.53;1.80;;;;;;;;;;5028635;28;20013;-67
2023/10/23 10:09:49;;;;;;;9.05;2.15;;;;;;;;;;5026223;28;20025;-65
2023/10/23 10:12:15;;;;;;;6.25;1.50;;;;;;;;;;5026384;28;20076;-66
2023/10/23 10:14:41;;;;;;;8.57;2.45;;;;;;;;;;5008577;28;20116;-65
2023/10/23 10:17:06;;;;;;;5.90;1.80;;;;;;;;;;5007798;28;20018;-67
2023/10/23 10:19:33;;;;;;;3.65;1.70;;;;;;;;;;5027125;28;20444;-64
2023/10/23 10:22:01;;;;;;;4.60;1.73;;;;;;;;;;5027686;28;20587;-66
2023/10/23 10:24:26;;;;;;;9.93;2.00;;;;;;;;;;5026196;28;20025;-65
2023/10/23 10:26:52;;;;;;;4.90;1.60;;;;;;;;;;5028022;28;20028;-64
2023/10/23 10:29:18;;;;;;;6.22;1.80;;;;;;;;;;5026178;28;20021;-67
2023/10/23 10:32:05;;;;;;;5.47;1.58;;;;;;;;;;5030875;28;20018;-66
2023/10/23 10:34:40;;;;;;;3.50;1.13;;;;;;;;;;5007285;28;20018;-64
2023/10/23 10:37:06;;;;;;;3.72;1.40;;;;;;;;;;5023527;28;20033;-67
2023/10/23 10:39:46;;;;;;;5.88;1.67;;;;;;;;;;5026783;28;20025;-66
2023/10/23 10:42:30;;;;;;;4.60;1.00;;;;;;;;;;5018287;28;20036;-65
2023/10/23 10:44:56;;;;;;;3.40;1.30;;;;;;;;;;5038149;28;20503;-67
2023/10/23 10:47:40;;;;;;;3.10;1.40;;;;;;;;;;5020101;28;20101;-66
2023/10/23 10:50:06;;;;;;;3.80;1.80;;;;;;;;;;5027265;28;20018;-66
2023/10/23 10:52:35;;;;;;;6.28;2.50;;;;;;;;;;5032512;28;20067;-67
2023/10/23 10:55:04;;;;;;;3.95;1.50;;;;;;;;;;5027949;28;20021;-67
2023/10/23 10:57:29;;;;;;;8.82;1.73;;;;;;;;;;5012150;28;20135;-66
2023/10/23 10:59:55;;;;;;;2.25;1.20;;;;;;;;;;5022359;28;20056;-69
2023/10/23 11:02:21;;;;;;;2.95;1.23;;;;;;;;;;5027700;28;20096;-67
2023/10/23 11:04:47;;;;;;;3.65;1.20;;;;;;;;;;5035724;28;20033;-67
2023/10/23 11:07:13;;;;;;;4.57;1.13;;;;;;;;;;5037652;28;20040;-66
2023/10/23 11:09:38;;;;;;;4.43;1.73;;;;;;;;;;5029188;28;20029;-67
2023/10/23 11:12:03;;;;;;;6.43;1.70;;;;;;;;;;5042709;28;20618;-65
2023/10/23 11:14:28;;;;;;;5.70;1.33;;;;;;;;;;5029881;28;20113;-67
2023/10/23 11:16:54;;;;;;;3.53;1.52;;;;;;;;;;5033459;28;20029;-65
2023/10/23 11:19:19;;;;;;;6.13;1.67;;;;;;;;;;5036692;28;20498;-66
2023/10/23 11:21:45;;;;;;;3.95;1.48;;;;;;;;;;5024932;28;20017;-66
2023/10/23 11:24:11;;;;;;;5.65;1.42;;;;;;;;;;5027546;28;20424;-67
2023/10/23 11:26:37;;;;;;;3.13;1.50;;;;;;;;;;5033160;28;20024;-67
2023/10/23 11:29:03;;;;;;;4.38;1.90;;;;;;;;;;5032564;28;20105;-66
2023/10/23 11:31:28;;;;;;;6.50;1.45;;;;;;;;;;5029298;28;20029;-66
2023/10/23 11:33:55;;;;;;;3.03;1.23;;;;;;;;;;5034732;28;20026;-69
2023/10/23 11:36:21;;;;;;;3.53;1.15;;;;;;;;;;5027851;28;20045;-68
2023/10/23 11:38:46;;;;;;;1.50;1.10;;;;;;;;;;5036891;28;20087;-67
2023/10/23 11:41:11;;;;;;;3.08;1.30;;;;;;;;;;5025139;28;20056;-68
2023/10/23 11:43:38;;;;;;;2.97;1.30;;;;;;;;;;5029665;28;20653;-67
2023/10/23 11:46:04;;;;;;;5.82;1.40;;;;;;;;;;5024666;28;20029;-66
2023/10/23 11:48:30;;;;;;;2.67;1.30;;;;;;;;;;5035412;28;20024;-66
2023/10/23 11:50:55;;;;;;;3.55;1.38;;;;;;;;;;5041004;28;20029;-68
2023/10/23 11:53:20;;;;;;;4.03;1.30;;;;;;;;;;5030130;28;20179;-68
2023/10/23 11:55:46;;;;;;;3.75;1.50;;;;;;;;;;5022994;28;20013;-66
2023/10/23 11:58:11;;;;;;;6.07;1.58;;;;;;;;;;5028260;28;20116;-66
2023/10/23 12:00:37;;;;;;;4.85;1.27;;;;;;;;;;5033685;28;20094;-68
2023/10/23 12:03:04;;;;;;;3.35;1.27;;;;;;;;;;5029802;28;20481;-67
2023/10/23 12:05:29;;;;;;;4.28;1.40;;;;;;;;;;5022559;28;20151;-68
2023/10/23 12:07:55;;;;;;;5.28;1.30;;;;;;;;;;5027150;28;20029;-65
2023/10/23 12:10:27;;;;;;;3.17;1.10;;;;;;;;;;5019308;28;20500;-67
2023/10/23 12:12:53;;;;;;;5.75;1.08;;;;;;;;;;5019523;28;20037;-65
2023/10/23 12:15:18;;;;;;;3.67;1.05;;;;;;;;;;5021436;28;20060;-66
2023/10/23 12:17:44;;;;;;;3.00;1.23;;;;;;;;;;5003997;28;20035;-66
2023/10/23 12:20:11;;;;;;;2.30;0.80;;;;;;;;;;5022545;28;20376;-68
2023/10/23 12:22:40;;;;;;;6.32;1.25;;;;;;;;;;5019185;28;20025;-66
2023/10/23 12:25:06;;;;;;;11.65;2.08;;;;;;;;;;5019811;28;20009;-65
2023/10/23 12:27:34;;;;;;;2.88;1.10;;;;;;;;;;5020681;28;20016;-68
2023/10/23 12:30:00;;;;;;;5.70;1.48;;;;;;;;;;5020019;28;20014;-66
2023/10/23 12:32:28;;;;;;;6.03;1.20;;;;;;;;;;5020779;28;20037;-66
2023/10/23 12:34:57;;;;;;;4.60;1.50;;;;;;;;;;5020211;28;20488;-68
2023/10/23 12:37:23;;;;;;;4.57;1.38;;;;;;;;;;5020688;28;20270;-68
2023/10/23 12:39:48;;;;;;;3.60;1.48;;;;;;;;;;5022078;28;20115;-66
2023/10/23 12:42:13;;;;;;;8.10;1.60;;;;;;;;;;5020233;28;20026;-65
2023/10/23 12:44:38;;;;;;;5.60;1.50;;;;;;;;;;5019691;28;20025;-67
2023/10/23 12:47:04;;;;;;;4.15;1.33;;;;;;;;;;5018980;28;20164;-64
2023/10/23 12:49:29;;;;;;;3.80;1.50;;;;;;;;;;5020157;28;20028;-65
2023/10/23 12:51:54;;;;;;;8.00;1.50;;;;;;;;;;5021762;28;20025;-66
2023/10/23 12:54:19;;;;;;;4.68;1.45;;;;;;;;;;5019584;28;20992;-67
2023/10/23 12:56:45;;;;;;;3.88;1.42;;;;;;;;;;5020509;28;20744;-66
2023/10/23 12:59:10;;;;;;;4.35;1.73;;;;;;;;;;5002967;28;20018;-68
2023/10/23 13:01:35;;;;;;;5.88;1.55;;;;;;;;;;5019610;28;20024;-65
2023/10/23 13:04:00;;;;;;;5.55;1.45;;;;;;;;;;5018973;28;20014;-69
2023/10/23 13:06:26;;;;;;;3.17;1.23;;;;;;;;;;5020258;28;20032;-66
2023/10/23 13:08:51;;;;;;;5.28;1.73;;;;;;;;;;5021248;28;20586;-65
2023/10/23 13:11:16;;;;;;;5.07;1.33;;;;;;;;;;5021846;28;20022;-66
2023/10/23 13:13:41;;;;;;;4.75;1.60;;;;;;;;;;5017928;28;20029;-64
2023/10/23 13:16:07;;;;;;;6.50;2.13;;;;;;;;;;5020280;28;20037;-64
2023/10/23 13:18:32;;;;;;;3.95;1.20;;;;;;;;;;5019804;28;20266;-65
2023/10/23 13:20:57;;;;;;;4.45;1.13;;;;;;;;;;4997918;28;20032;-69
2023/10/23 13:23:22;;;;;;;3.90;1.30;;;;;;;;;;5019026;28;20535;-66
2023/10/23 13:25:47;;;;;;;7.43;1.50;;;;;;;;;;5020242;28;20108;-65
2023/10/23 13:28:13;;;;;;;4.95;1.60;;;;;;;;;;5020316;28;20096;-69
2023/10/23 13:30:38;;;;;;;9.38;1.50;;;;;;;;;;5018494;28;20785;-63
2023/10/23 13:33:03;;;;;;;3.88;1.15;;;;;;;;;;5019208;28;20044;-68
2023/10/23 13:35:28;;;;;;;6.18;1.63;;;;;;;;;;5022175;28;20397;-66
2023/10/23 13:37:54;;;;;;;5.32;1.40;;;;;;;;;;5018026;28;20092;-65
2023/10/23 13:40:19;;;;;;;11.65;1.55;;;;;;;;;;5024127;28;20066;-66
2023/10/23 13:42:44;;;;;;;7.75;1.70;;;;;;;;;;5025240;28;20079;-67
2023/10/23 13:45:09;;;;;;;6.63;1.50;;;;;;;;;;5020391;28;20026;-66
2023/10/23 13:47:35;;;;;;;7.10;2.78;;;;;;;;;;5024394;28;20475;-66
2023/10/23 13:50:00;;;;;;;11.93;3.55;;;;;;;;;;5026009;28;20087;-66
2023/10/23 13:52:25;;;;;;;8.83;1.53;;;;;;;;;;5027980;28;20048;-67
2023/10/23 13:54:50;;;;;;;5.60;1.30;;;;;;;;;;5024072;28;20778;-64
2023/10/23 13:57:16;;;;;;;5.75;1.52;;;;;;;;;;5036459;28;20438;-67
2023/10/23 13:59:41;;;;;;;5.35;1.48;;;;;;;;;;5026204;28;20083;-67
2023/10/23 14:02:06;;;;;;;6.85;2.20;;;;;;;;;;5025852;28;20021;-68
2023/10/23 14:04:32;;;;;;;8.05;1.65;;;;;;;;;;5022042;28;20109;-66
2023/10/23 14:06:57;;;;;;;3.67;1.10;;;;;;;;;;5025381;28;20009;-68
2023/10/23 14:09:22;;;;;;;6.00;1.50;;;;;;;;;;5026124;28;20045;-65
2023/10/23 14:11:47;;;;;;;7.97;1.48;;;;;;;;;;5025956;28;20029;-67
2023/10/23 14:14:13;;;;;;;5.93;2.23;;;;;;;;;;5028941;28;20130;-69
2023/10/23 14:16:38;;;;;;;7.50;1.50;;;;;;;;;;5024741;28;20359;-65
2023/10/23 14:19:03;;;;;;;2.78;1.05;;;;;;;;;;5027420;28;20018;-71
2023/10/23 14:21:29;;;;;;;3.88;1.17;;;;;;;;;;5033164;28;20402;-64
2023/10/23 14:23:54;;;;;;;7.25;1.23;;;;;;;;;;5028724;28;20021;-67
2023/10/23 14:26:19;;;;;;;5.47;1.20;;;;;;;;;;5026708;28;20033;-67
2023/10/23 14:28:44;;;;;;;6.15;1.35;;;;;;;;;;5034503;28;20068;-67